Time;durP1;ratioP1;P1;durP2;ratioP2;P2;SDS_P1;SDS_P2;PMS_P1;PMS_P2;Temp;Humidity;BMP_temperature;BMP_pressure;BME280_temperature;BME280_humidity;BME280_pressure;Samples;Min_cycle;Max_cycle;Signal;HPM_P1;HPM_P2
2021/04/25 00:00:46;;;;;;;30.65;9.93;;;29.70;75.70;;;;;;5087026;28;20051;-44
2021/04/25 00:03:12;;;;;;;20.33;9.68;;;29.80;75.60;;;;;;5085140;28;20194;-52
2021/04/25 00:05:39;;;;;;;23.55;10.15;;;29.80;75.50;;;;;;5086773;28;20036;-53
2021/04/25 00:08:06;;;;;;;28.02;10.15;;;29.90;75.50;;;;;;5051790;28;20325;-53
2021/04/25 00:10:33;;;;;;;28.77;9.98;;;29.90;75.40;;;;;;5086695;28;20028;-49
2021/04/25 00:13:00;;;;;;;25.02;9.48;;;29.90;75.40;;;;;;5086284;28;20149;-53
2021/04/25 00:15:28;;;;;;;27.95;9.40;;;30.00;75.50;;;;;;5086670;28;20024;-53
2021/04/25 00:17:54;;;;;;;30.15;9.98;;;29.90;75.30;;;;;;5086158;28;20332;-50
2021/04/25 00:20:22;;;;;;;27.92;9.98;;;29.90;75.30;;;;;;5086478;28;20123;-46
2021/04/25 00:22:49;;;;;;;31.98;9.43;;;29.90;75.40;;;;;;5086030;28;20016;-50
2021/04/25 00:25:16;;;;;;;23.17;9.43;;;29.90;75.30;;;;;;5086170;28;20048;-54
2021/04/25 00:27:45;;;;;;;20.50;8.75;;;29.90;75.40;;;;;;5085739;28;20077;-46
2021/04/25 00:30:17;;;;;;;26.17;10.65;;;29.90;75.50;;;;;;5086129;28;20297;-54
2021/04/25 00:32:45;;;;;;;21.42;9.55;;;29.90;75.60;;;;;;5085769;28;20092;-46
2021/04/25 00:35:13;;;;;;;20.88;9.85;;;29.90;75.60;;;;;;5085837;28;20051;-49
2021/04/25 00:37:40;;;;;;;16.00;8.57;;;29.90;75.60;;;;;;5085856;28;20017;-51
2021/04/25 00:40:09;;;;;;;19.15;9.10;;;29.90;75.50;;;;;;5068019;28;20225;-52
2021/04/25 00:42:36;;;;;;;20.23;9.02;;;29.90;75.70;;;;;;5086374;28;20028;-50
2021/04/25 00:45:09;;;;;;;27.40;8.63;;;29.90;75.60;;;;;;5088372;28;20067;-47
2021/04/25 00:47:36;;;;;;;22.70;8.80;;;29.80;75.60;;;;;;5071051;28;20020;-51
2021/04/25 00:50:04;;;;;;;27.60;8.90;;;29.80;75.50;;;;;;5088414;28;20020;-47
2021/04/25 00:52:38;;;;;;;25.50;9.50;;;29.80;75.50;;;;;;5086265;28;20013;-49
2021/04/25 00:55:06;;;;;;;40.67;9.98;;;29.80;75.50;;;;;;5067206;28;20051;-47
2021/04/25 00:57:33;;;;;;;25.33;9.40;;;29.90;75.60;;;;;;5085722;28;20012;-49
2021/04/25 01:00:01;;;;;;;59.38;11.57;;;29.80;75.50;;;;;;5067932;28;20083;-52
2021/04/25 01:02:29;;;;;;;44.10;11.35;;;29.80;75.40;;;;;;5067417;28;20052;-58
2021/04/25 01:04:56;;;;;;;46.00;11.70;;;29.80;75.30;;;;;;5085610;28;20020;-50
2021/04/25 01:07:23;;;;;;;44.60;10.73;;;29.80;75.30;;;;;;5067447;28;20016;-50
2021/04/25 01:09:50;;;;;;;39.08;11.60;;;29.80;75.50;;;;;;5085042;28;20363;-50
2021/04/25 01:12:20;;;;;;;42.50;12.10;;;29.80;75.50;;;;;;5066322;28;20048;-46
2021/04/25 01:14:47;;;;;;;43.65;12.98;;;29.70;75.50;;;;;;5084877;28;20070;-51
2021/04/25 01:17:14;;;;;;;28.50;13.25;;;29.70;75.50;;;;;;5085014;28;20016;-47
2021/04/25 01:19:41;;;;;;;31.63;12.13;;;29.70;75.60;;;;;;5085186;28;20100;-50
2021/04/25 01:22:07;;;;;;;36.78;11.75;;;29.70;75.60;;;;;;5084821;28;20075;-49
2021/04/25 01:24:34;;;;;;;29.42;10.77;;;29.70;75.60;;;;;;5084915;28;20076;-46
2021/04/25 01:27:01;;;;;;;38.45;10.68;;;29.70;75.70;;;;;;5084764;28;20080;-47
2021/04/25 01:29:29;;;;;;;32.92;10.43;;;29.70;75.70;;;;;;5084751;28;20035;-51
2021/04/25 01:31:56;;;;;;;32.05;10.18;;;29.70;76.30;;;;;;5084708;28;20024;-46
2021/04/25 01:34:23;;;;;;;27.50;9.82;;;29.70;75.70;;;;;;5084780;28;20024;-50
2021/04/25 01:36:56;;;;;;;28.40;9.75;;;29.60;75.80;;;;;;5084916;28;20020;-52
2021/04/25 01:39:25;;;;;;;29.75;14.07;;;29.60;75.80;;;;;;5086027;28;20024;-48
2021/04/25 01:41:59;;;;;;;31.70;12.77;;;29.60;75.90;;;;;;5067196;28;20363;-47
2021/04/25 01:44:26;;;;;;;35.00;12.45;;;29.60;76.00;;;;;;5067643;28;20286;-51
2021/04/25 01:46:57;;;;;;;30.67;10.68;;;29.60;76.00;;;;;;5066718;28;20048;-49
2021/04/25 01:49:24;;;;;;;26.92;10.75;;;29.60;76.10;;;;;;5085113;28;20092;-53
2021/04/25 01:51:54;;;;;;;32.55;11.77;;;29.50;76.00;;;;;;5084346;28;20204;-47
2021/04/25 01:54:22;;;;;;;35.40;10.75;;;29.60;76.10;;;;;;5084606;28;20028;-47
2021/04/25 01:56:50;;;;;;;30.42;9.95;;;29.50;76.10;;;;;;5084410;28;20020;-46
2021/04/25 01:59:16;;;;;;;37.95;10.07;;;29.50;76.00;;;;;;5066251;28;20028;-48
2021/04/25 02:01:43;;;;;;;31.95;10.18;;;29.50;76.10;;;;;;5067010;28;20034;-50
2021/04/25 02:04:12;;;;;;;27.10;10.20;;;29.50;76.10;;;;;;5049741;28;20056;-60
2021/04/25 02:06:43;;;;;;;26.25;9.88;;;29.50;76.00;;;;;;5084933;28;20354;-47
2021/04/25 02:09:11;;;;;;;27.00;11.27;;;29.50;76.00;;;;;;5066573;28;20033;-45
2021/04/25 02:11:38;;;;;;;26.30;11.43;;;29.50;76.00;;;;;;5084750;28;20072;-47
2021/04/25 02:14:09;;;;;;;29.58;11.15;;;29.50;76.00;;;;;;5066887;28;20017;-49
2021/04/25 02:16:36;;;;;;;26.13;10.55;;;29.40;76.10;;;;;;5084784;28;20020;-50
2021/04/25 02:19:03;;;;;;;24.13;10.30;;;29.40;76.20;;;;;;5083742;28;20021;-53
2021/04/25 02:21:30;;;;;;;28.77;11.10;;;29.40;76.30;;;;;;5083979;28;20024;-47
2021/04/25 02:23:58;;;;;;;22.67;10.65;;;29.40;76.40;;;;;;5083762;28;20048;-47
2021/04/25 02:26:29;;;;;;;29.40;13.30;;;29.30;76.40;;;;;;5066605;28;20031;-46
2021/04/25 02:28:56;;;;;;;35.22;23.25;;;29.30;76.50;;;;;;5084288;28;20317;-50
2021/04/25 02:31:23;;;;;;;32.33;15.32;;;29.30;76.60;;;;;;5066255;28;20037;-46
2021/04/25 02:33:50;;;;;;;28.75;15.43;;;29.30;76.50;;;;;;5065619;28;20016;-51
2021/04/25 02:36:17;;;;;;;29.52;17.00;;;29.30;76.50;;;;;;5083766;28;20217;-49
2021/04/25 02:38:45;;;;;;;35.72;20.92;;;29.20;76.60;;;;;;5065867;28;20032;-48
2021/04/25 02:41:12;;;;;;;36.65;24.88;;;29.30;76.80;;;;;;5066115;28;20363;-49
2021/04/25 02:43:39;;;;;;;42.05;28.23;;;29.30;76.70;;;;;;5083920;28;20040;-47
2021/04/25 02:46:05;;;;;;;36.88;23.83;;;29.20;76.70;;;;;;5083675;28;20028;-46
2021/04/25 02:48:32;;;;;;;44.63;21.33;;;29.20;76.80;;;;;;5083346;28;20066;-54
2021/04/25 02:50:59;;;;;;;36.60;19.88;;;29.20;77.00;;;;;;5084100;28;20057;-50
2021/04/25 02:53:27;;;;;;;39.88;18.05;;;29.20;77.10;;;;;;5083582;28;20091;-50
2021/04/25 02:55:54;;;;;;;44.65;17.08;;;29.20;77.20;;;;;;5083876;28;20016;-48
2021/04/25 02:58:20;;;;;;;36.45;16.27;;;29.20;77.30;;;;;;5083224;28;20044;-52
2021/04/25 03:00:47;;;;;;;34.83;15.05;;;29.10;77.00;;;;;;5083933;28;20027;-48
2021/04/25 03:03:14;;;;;;;27.13;13.52;;;29.10;76.90;;;;;;5083354;28;20024;-54
2021/04/25 03:05:41;;;;;;;23.02;12.75;;;29.10;76.80;;;;;;5083981;28;20028;-53
2021/04/25 03:08:09;;;;;;;22.95;11.75;;;29.10;76.70;;;;;;5083495;28;20020;-48
2021/04/25 03:10:36;;;;;;;22.58;11.68;;;29.10;76.60;;;;;;5083712;28;20040;-50
2021/04/25 03:13:02;;;;;;;21.27;11.35;;;29.10;76.50;;;;;;5083320;28;20027;-49
2021/04/25 03:15:29;;;;;;;17.00;9.77;;;29.10;76.50;;;;;;5065568;28;20024;-51
2021/04/25 03:17:56;;;;;;;21.75;11.68;;;29.10;76.70;;;;;;5065561;28;20025;-48
2021/04/25 03:20:24;;;;;;;22.15;10.75;;;29.10;76.70;;;;;;5065493;28;20099;-48
2021/04/25 03:22:51;;;;;;;20.05;10.57;;;29.10;76.60;;;;;;5083372;28;20067;-46
2021/04/25 03:25:18;;;;;;;25.83;10.40;;;29.10;76.70;;;;;;5083341;28;20063;-49
2021/04/25 03:27:46;;;;;;;21.00;10.02;;;29.00;76.70;;;;;;5083491;28;20032;-55
2021/04/25 03:30:15;;;;;;;18.35;10.30;;;29.00;76.70;;;;;;5083649;28;20039;-53
2021/04/25 03:32:42;;;;;;;24.30;9.88;;;29.00;76.70;;;;;;5083330;28;20100;-45
2021/04/25 03:35:12;;;;;;;26.15;9.75;;;29.00;76.80;;;;;;5083635;28;20055;-48
2021/04/25 03:37:39;;;;;;;19.70;9.85;;;29.00;76.70;;;;;;5084954;28;20023;-47
2021/04/25 03:40:08;;;;;;;29.35;8.90;;;28.90;76.70;;;;;;5087714;28;20045;-51
2021/04/25 03:42:39;;;;;;;28.90;8.50;;;28.90;76.60;;;;;;5069996;28;20027;-48
2021/04/25 03:45:13;;;;;;;21.83;9.35;;;28.90;76.50;;;;;;5087309;28;20036;-53
2021/04/25 03:47:47;;;;;;;19.92;8.23;;;28.90;76.40;;;;;;5086513;28;20013;-48
2021/04/25 03:50:15;;;;;;;17.63;8.50;;;28.90;76.30;;;;;;5087136;28;20027;-56
2021/04/25 03:52:44;;;;;;;18.00;8.30;;;28.90;76.30;;;;;;5086600;28;20016;-58
2021/04/25 03:55:11;;;;;;;19.40;8.02;;;28.90;76.30;;;;;;5086854;28;20056;-54
2021/04/25 03:57:38;;;;;;;19.90;7.53;;;28.90;76.10;;;;;;5086701;28;20013;-49
2021/04/25 04:00:09;;;;;;;16.63;7.47;;;28.90;76.20;;;;;;5086739;28;20025;-52
2021/04/25 04:02:36;;;;;;;16.10;7.57;;;28.90;76.10;;;;;;5086639;28;20243;-46
2021/04/25 04:05:04;;;;;;;17.25;7.78;;;28.90;76.00;;;;;;5086806;28;20233;-52
2021/04/25 04:07:31;;;;;;;21.90;8.57;;;28.90;76.20;;;;;;5086233;28;20062;-49
2021/04/25 04:09:58;;;;;;;16.33;9.20;;;28.90;76.10;;;;;;5086571;28;20088;-51
2021/04/25 04:12:24;;;;;;;23.98;11.32;;;28.90;76.10;;;;;;5086363;28;20020;-50
2021/04/25 04:14:52;;;;;;;23.92;12.35;;;28.80;76.10;;;;;;5051981;28;20096;-48
2021/04/25 04:17:19;;;;;;;27.80;13.50;;;28.80;76.20;;;;;;5086106;28;20079;-50
2021/04/25 04:19:45;;;;;;;45.10;17.20;;;28.80;76.30;;;;;;5086188;28;20036;-55
2021/04/25 04:22:12;;;;;;;23.60;13.02;;;28.80;76.50;;;;;;5085938;28;20020;-60
2021/04/25 04:24:39;;;;;;;22.55;10.77;;;28.70;76.50;;;;;;5086060;28;20054;-51
2021/04/25 04:27:06;;;;;;;25.30;9.77;;;28.70;76.60;;;;;;5085849;28;20024;-53
2021/04/25 04:29:33;;;;;;;26.70;11.20;;;28.70;76.70;;;;;;5085923;28;20028;-47
2021/04/25 04:32:00;;;;;;;27.70;14.13;;;28.60;76.70;;;;;;5085929;28;20024;-54
2021/04/25 04:34:27;;;;;;;27.70;15.48;;;28.60;76.70;;;;;;5085936;28;20082;-49
2021/04/25 04:36:53;;;;;;;23.77;13.90;;;28.60;76.70;;;;;;5085606;28;20013;-50
2021/04/25 04:39:20;;;;;;;24.58;14.00;;;28.60;76.70;;;;;;5085790;28;20104;-49
2021/04/25 04:41:47;;;;;;;25.00;14.25;;;28.60;76.70;;;;;;5085878;28;20043;-49
2021/04/25 04:44:14;;;;;;;28.02;14.02;;;28.60;76.90;;;;;;5085582;28;20070;-49
2021/04/25 04:46:40;;;;;;;26.23;13.32;;;28.60;76.90;;;;;;5085766;28;20024;-53
2021/04/25 04:49:07;;;;;;;26.23;14.77;;;28.60;76.90;;;;;;5085093;28;20025;-52
2021/04/25 04:51:34;;;;;;;24.83;14.88;;;28.60;77.10;;;;;;5085627;28;20016;-52
2021/04/25 04:54:01;;;;;;;25.80;13.52;;;28.60;77.20;;;;;;5085418;28;20226;-50
2021/04/25 04:56:27;;;;;;;37.97;14.48;;;28.50;77.10;;;;;;5085405;28;20038;-52
2021/04/25 04:58:54;;;;;;;33.47;15.57;;;28.60;77.20;;;;;;5085463;28;20350;-49
2021/04/25 05:02:40;;;;;;;25.38;13.50;;;28.50;77.30;;;;;;5085576;28;20087;-49
2021/04/25 05:05:48;;;;;;;18.42;10.40;;;28.50;77.30;;;;;;5023498;28;20311;-52
2021/04/25 05:08:23;;;;;;;21.38;10.77;;;28.50;77.30;;;;;;5044711;28;20048;-54
2021/04/25 05:10:56;;;;;;;17.30;9.40;;;28.50;77.30;;;;;;5085599;28;20021;-46
2021/04/25 05:13:22;;;;;;;;;;;28.50;77.30;;;;;;5068169;28;20073;-58
2021/04/25 05:15:56;;;;;;;15.98;8.23;;;28.40;77.10;;;;;;5083938;28;19912;-50
2021/04/25 05:18:29;;;;;;;21.30;8.98;;;28.40;77.10;;;;;;5067196;28;20047;-48
2021/04/25 05:21:18;;;;;;;15.00;7.45;;;28.40;77.00;;;;;;5051412;28;20025;-48
2021/04/25 05:23:46;;;;;;;19.02;8.45;;;28.40;77.00;;;;;;5020447;28;20101;-54
2021/04/25 05:26:15;;;;;;;28.33;8.00;;;28.40;76.90;;;;;;5007257;28;20041;-48
2021/04/25 05:28:45;;;;;;;21.88;9.05;;;28.40;76.90;;;;;;5006491;28;20056;-52
2021/04/25 05:31:13;;;;;;;19.65;10.10;;;28.40;76.90;;;;;;5023202;28;20030;-50
2021/04/25 05:33:46;;;;;;;22.23;11.50;;;28.40;76.90;;;;;;5021627;28;20265;-52
2021/04/25 05:36:12;;;;;;;25.00;12.18;;;28.40;76.90;;;;;;5007451;28;20045;-45
2021/04/25 05:38:39;;;;;;;23.05;11.07;;;28.40;76.80;;;;;;5023254;28;20030;-49
2021/04/25 05:41:05;;;;;;;21.67;9.30;;;28.40;76.80;;;;;;5023090;28;20041;-49
2021/04/25 05:43:32;;;;;;;20.40;9.25;;;28.40;76.70;;;;;;5023113;28;20118;-48
2021/04/25 05:45:59;;;;;;;15.05;8.93;;;28.30;76.90;;;;;;5023074;28;20067;-44
2021/04/25 05:48:25;;;;;;;18.25;7.75;;;28.40;77.10;;;;;;5022899;28;20130;-48
2021/04/25 05:50:52;;;;;;;13.52;7.43;;;28.40;77.00;;;;;;5022990;28;20034;-49
2021/04/25 05:53:19;;;;;;;13.68;7.70;;;28.40;77.10;;;;;;5006782;28;20263;-49
2021/04/25 05:55:46;;;;;;;16.92;8.10;;;28.40;76.80;;;;;;5022731;28;20110;-54
2021/04/25 05:58:13;;;;;;;11.60;7.53;;;28.30;76.90;;;;;;5022943;28;20238;-49
2021/04/25 06:00:40;;;;;;;21.80;7.50;;;28.30;76.50;;;;;;5041930;28;20221;-48
2021/04/25 06:03:07;;;;;;;14.45;7.57;;;28.30;76.70;;;;;;5084185;28;20021;-47
2021/04/25 06:05:34;;;;;;;12.15;7.18;;;28.30;76.50;;;;;;5084492;28;20097;-48
2021/04/25 06:08:01;;;;;;;12.13;7.40;;;28.30;76.40;;;;;;5084056;28;20394;-48
2021/04/25 06:10:28;;;;;;;15.00;7.05;;;28.30;76.30;;;;;;5084401;28;20066;-47
2021/04/25 06:12:55;;;;;;;17.35;6.85;;;28.30;76.40;;;;;;5084194;28;20039;-50
2021/04/25 06:15:23;;;;;;;16.38;6.97;;;28.30;76.30;;;;;;5084265;28;20016;-50
2021/04/25 06:17:51;;;;;;;22.55;7.78;;;28.30;76.30;;;;;;5083927;28;20028;-51
2021/04/25 06:20:19;;;;;;;14.20;6.60;;;28.20;76.10;;;;;;5084306;28;20297;-47
2021/04/25 06:22:47;;;;;;;15.60;7.65;;;28.20;76.20;;;;;;5083940;28;20032;-46
2021/04/25 06:25:16;;;;;;;18.30;7.28;;;28.20;76.30;;;;;;5083984;28;20148;-49
2021/04/25 06:27:42;;;;;;;17.00;7.25;;;28.20;76.30;;;;;;5083738;28;20033;-52
2021/04/25 06:30:12;;;;;;;14.13;7.10;;;28.20;76.40;;;;;;5084160;28;20301;-49
2021/04/25 06:32:40;;;;;;;15.85;7.47;;;28.20;76.30;;;;;;5083741;28;20025;-49
2021/04/25 06:35:08;;;;;;;20.92;7.75;;;28.20;76.20;;;;;;5084011;28;20055;-49
2021/04/25 06:37:35;;;;;;;13.25;6.40;;;28.20;76.20;;;;;;5083734;28;20084;-53
2021/04/25 06:40:02;;;;;;;17.95;7.18;;;28.10;76.10;;;;;;5083932;28;20204;-53
2021/04/25 06:42:31;;;;;;;13.73;6.80;;;28.10;76.00;;;;;;5083755;28;20213;-54
2021/04/25 06:44:58;;;;;;;15.45;7.00;;;28.10;76.00;;;;;;5083933;28;20355;-51
2021/04/25 06:47:24;;;;;;;11.70;6.53;;;28.10;76.00;;;;;;5083503;28;20306;-54
2021/04/25 06:49:51;;;;;;;14.13;6.70;;;28.10;75.90;;;;;;5083779;28;20024;-49
2021/04/25 06:52:18;;;;;;;14.30;7.00;;;28.10;76.00;;;;;;5083657;28;20088;-47
2021/04/25 06:54:44;;;;;;;17.30;6.60;;;28.10;75.80;;;;;;5083656;28;20025;-47
2021/04/25 06:57:11;;;;;;;11.57;6.47;;;28.10;75.70;;;;;;5083396;28;20020;-54
2021/04/25 06:59:37;;;;;;;10.57;5.97;;;28.10;75.70;;;;;;5083610;28;20059;-53
2021/04/25 07:02:04;;;;;;;17.30;6.45;;;28.10;75.60;;;;;;5083458;28;20214;-53
2021/04/25 07:04:30;;;;;;;11.38;6.85;;;28.10;75.30;;;;;;5083883;28;20158;-45
2021/04/25 07:06:57;;;;;;;13.57;6.80;;;28.10;75.10;;;;;;5083595;28;20028;-58
2021/04/25 07:09:24;;;;;;;13.02;6.95;;;28.10;75.10;;;;;;5083514;28;20083;-50
2021/04/25 07:11:50;;;;;;;13.77;6.30;;;28.10;74.90;;;;;;5083535;28;20251;-52
2021/04/25 07:14:17;;;;;;;16.13;6.85;;;28.10;74.70;;;;;;5087342;28;20040;-53
2021/04/25 07:16:43;;;;;;;16.00;6.78;;;28.10;74.50;;;;;;5087306;28;20021;-46
2021/04/25 07:19:10;;;;;;;13.00;6.80;;;28.10;74.30;;;;;;5087222;28;20051;-49
2021/04/25 07:21:37;;;;;;;14.65;6.90;;;28.10;74.10;;;;;;5087283;28;20024;-46
2021/04/25 07:24:04;;;;;;;13.27;6.38;;;28.10;74.00;;;;;;5087107;28;20056;-53
2021/04/25 07:26:32;;;;;;;16.33;6.97;;;28.10;73.90;;;;;;5086900;28;20048;-48
2021/04/25 07:28:59;;;;;;;15.52;7.07;;;28.10;74.10;;;;;;5069588;28;20031;-48
2021/04/25 07:31:25;;;;;;;23.75;6.80;;;28.10;73.90;;;;;;5086968;28;20017;-55
2021/04/25 07:33:52;;;;;;;12.60;6.70;;;28.00;73.70;;;;;;5086891;28;20017;-47
2021/04/25 07:36:18;;;;;;;13.73;6.28;;;28.00;73.70;;;;;;5087070;28;20050;-52
2021/04/25 07:38:45;;;;;;;16.00;6.93;;;28.00;73.80;;;;;;5086913;28;20043;-46
2021/04/25 07:41:12;;;;;;;10.30;6.30;;;28.00;73.70;;;;;;5086721;28;20039;-47
2021/04/25 07:43:39;;;;;;;10.85;6.95;;;28.00;73.80;;;;;;5086806;28;20190;-50
2021/04/25 07:46:06;;;;;;;21.17;7.07;;;28.00;73.80;;;;;;5086693;28;20056;-54
2021/04/25 07:48:32;;;;;;;13.43;6.88;;;28.00;73.70;;;;;;5086551;28;20333;-50
2021/04/25 07:50:59;;;;;;;14.15;7.00;;;28.00;73.70;;;;;;5087198;28;20066;-50
2021/04/25 07:53:26;;;;;;;15.43;6.47;;;28.00;73.70;;;;;;5086670;28;20054;-52
2021/04/25 07:55:52;;;;;;;12.88;7.03;;;28.00;73.70;;;;;;5086878;28;20088;-55
2021/04/25 07:58:19;;;;;;;12.95;6.75;;;28.00;73.60;;;;;;5086591;28;20033;-53
2021/04/25 08:00:45;;;;;;;14.10;6.40;;;28.00;73.60;;;;;;5087072;28;20236;-46
2021/04/25 08:03:12;;;;;;;14.75;6.57;;;28.00;73.80;;;;;;5086284;28;20029;-46
2021/04/25 08:05:39;;;;;;;14.00;6.13;;;28.00;73.80;;;;;;5086824;28;20020;-50
2021/04/25 08:08:06;;;;;;;15.52;6.70;;;28.00;73.70;;;;;;5086586;28;20321;-48
2021/04/25 08:10:32;;;;;;;13.20;6.18;;;28.00;73.70;;;;;;5086587;28;20021;-55
2021/04/25 08:12:59;;;;;;;12.95;6.28;;;28.00;73.70;;;;;;5086344;28;20035;-53
2021/04/25 08:15:26;;;;;;;15.75;6.75;;;27.90;74.10;;;;;;5086501;28;20205;-51
2021/04/25 08:17:56;;;;;;;9.57;6.32;;;28.00;73.50;;;;;;5086187;28;20024;-53
2021/04/25 08:20:23;;;;;;;15.25;6.88;;;28.00;73.50;;;;;;5086415;28;20243;-49
2021/04/25 08:22:50;;;;;;;17.73;8.73;;;27.90;73.30;;;;;;5086230;28;20240;-54
2021/04/25 08:25:17;;;;;;;16.27;8.95;;;27.90;73.30;;;;;;5085163;28;20116;-52
2021/04/25 08:27:43;;;;;;;21.08;8.27;;;27.90;73.30;;;;;;5086006;28;20028;-55
2021/04/25 08:30:11;;;;;;;14.90;7.60;;;27.90;73.30;;;;;;5086126;28;20019;-47
2021/04/25 08:32:37;;;;;;;14.85;7.20;;;27.90;73.30;;;;;;5085762;28;20224;-53
2021/04/25 08:35:06;;;;;;;13.88;7.10;;;27.90;73.30;;;;;;5086240;28;20301;-46
2021/04/25 08:37:32;;;;;;;11.18;6.45;;;27.80;73.20;;;;;;5086101;28;20265;-50
2021/04/25 08:39:59;;;;;;;14.82;6.97;;;27.80;73.10;;;;;;5086006;28;20047;-53
2021/04/25 08:42:26;;;;;;;14.73;6.95;;;27.80;73.20;;;;;;5085638;28;20040;-49
2021/04/25 08:44:55;;;;;;;23.80;7.47;;;27.90;73.40;;;;;;5085734;28;20020;-52
2021/04/25 08:47:24;;;;;;;18.17;7.20;;;27.80;73.20;;;;;;5096521;28;20023;-55
2021/04/25 08:49:52;;;;;;;19.33;6.35;;;27.80;73.20;;;;;;5105644;28;20024;-49
2021/04/25 08:52:22;;;;;;;17.52;6.60;;;27.80;73.20;;;;;;5087011;28;20217;-48
2021/04/25 08:54:48;;;;;;;16.05;6.22;;;27.80;73.00;;;;;;5085659;28;20016;-48
2021/04/25 08:57:15;;;;;;;13.65;7.03;;;27.80;73.10;;;;;;5085486;28;20035;-48
2021/04/25 08:59:42;;;;;;;16.77;6.47;;;27.90;73.10;;;;;;5085543;28;20287;-48
2021/04/25 09:02:08;;;;;;;15.35;7.28;;;27.90;72.80;;;;;;5085209;28;20029;-54
2021/04/25 09:04:35;;;;;;;18.67;8.45;;;27.80;72.70;;;;;;5085406;28;20058;-53
2021/04/25 09:07:09;;;;;;;14.55;7.72;;;27.80;72.60;;;;;;5085423;28;20040;-53
2021/04/25 09:10:08;;;;;;;17.60;7.72;;;27.80;72.60;;;;;;5085213;28;20020;-51
2021/04/25 09:12:37;;;;;;;10.98;7.13;;;27.80;72.40;;;;;;5051919;28;20028;-53
2021/04/25 09:15:06;;;;;;;14.35;7.38;;;27.80;72.50;;;;;;5085395;28;20025;-51
2021/04/25 09:17:56;;;;;;;17.13;7.10;;;27.80;72.60;;;;;;5085154;28;20048;-53
2021/04/25 09:20:45;;;;;;;15.70;6.25;;;27.80;72.60;;;;;;5085302;28;20016;-50
2021/04/25 09:23:15;;;;;;;19.35;6.75;;;27.70;72.70;;;;;;5084834;28;20217;-50
2021/04/25 09:25:53;;;;;;;15.45;6.55;;;27.70;72.80;;;;;;5085270;28;20052;-49
2021/04/25 09:28:20;;;;;;;12.02;6.70;;;27.70;72.90;;;;;;5084887;28;20083;-50
2021/04/25 09:31:02;;;;;;;17.40;6.38;;;27.70;73.20;;;;;;5085215;28;20156;-50
2021/04/25 09:33:48;;;;;;;17.45;6.53;;;27.70;73.20;;;;;;5085170;28;20181;-50
2021/04/25 09:36:21;;;;;;;15.18;6.18;;;27.70;73.40;;;;;;5084530;28;20024;-51
2021/04/25 09:39:11;;;;;;;14.15;6.00;;;27.70;73.60;;;;;;5084574;28;20021;-50
2021/04/25 09:41:38;;;;;;;12.10;6.07;;;27.60;73.60;;;;;;5076763;28;20323;-50
2021/04/25 09:44:05;;;;;;;12.40;6.43;;;27.70;73.80;;;;;;5084606;28;20028;-51
2021/04/25 09:46:53;;;;;;;10.98;5.97;;;27.60;73.80;;;;;;5084596;28;20024;-55
2021/04/25 09:49:43;;;;;;;10.88;6.45;;;27.60;73.80;;;;;;5084526;28;20038;-51
2021/04/25 09:52:12;;;;;;;10.68;6.18;;;27.60;73.90;;;;;;5084309;28;20088;-49
2021/04/25 09:54:39;;;;;;;16.52;6.70;;;27.60;74.00;;;;;;5084538;28;20025;-49
2021/04/25 09:57:07;;;;;;;13.05;6.50;;;27.60;74.10;;;;;;5084299;28;20022;-48
2021/04/25 09:59:51;;;;;;;11.32;6.93;;;27.60;73.90;;;;;;5084378;28;20032;-49
2021/04/25 10:02:18;;;;;;;12.38;6.43;;;27.60;74.00;;;;;;5084125;28;20024;-48
2021/04/25 10:04:44;;;;;;;15.40;6.85;;;27.60;74.00;;;;;;5084415;28;20020;-49
2021/04/25 10:07:12;;;;;;;14.77;6.70;;;27.60;74.00;;;;;;5066361;28;20039;-51
2021/04/25 10:09:39;;;;;;;12.70;6.95;;;27.60;74.00;;;;;;5084149;28;20024;-51
2021/04/25 10:12:06;;;;;;;13.82;7.85;;;27.60;74.00;;;;;;5084098;28;20012;-49
2021/04/25 10:14:35;;;;;;;15.18;7.90;;;27.60;74.10;;;;;;5084045;28;20024;-49
2021/04/25 10:17:03;;;;;;;17.38;7.95;;;27.50;74.20;;;;;;5083748;28;20017;-49
2021/04/25 10:19:30;;;;;;;14.80;8.45;;;27.60;74.50;;;;;;5084048;28;20028;-55
2021/04/25 10:21:57;;;;;;;15.45;7.90;;;27.60;74.50;;;;;;5084010;28;20035;-52
2021/04/25 10:24:24;;;;;;;20.65;7.63;;;27.50;74.30;;;;;;5083739;28;20260;-49
2021/04/25 10:27:14;;;;;;;20.05;8.30;;;27.50;74.30;;;;;;5084133;28;20032;-52
2021/04/25 10:29:53;;;;;;;26.58;8.32;;;27.60;74.20;;;;;;5083902;28;20323;-50
2021/04/25 10:32:21;;;;;;;21.50;7.70;;;27.60;74.20;;;;;;5083781;28;20043;-48
2021/04/25 10:34:51;;;;;;;18.83;8.18;;;27.60;74.20;;;;;;5084067;28;20297;-49
2021/04/25 10:37:18;;;;;;;21.33;7.53;;;27.60;74.20;;;;;;5084043;28;20081;-49
2021/04/25 10:39:56;;;;;;;26.50;8.25;;;27.50;74.00;;;;;;5083932;28;20070;-49
2021/04/25 10:42:32;;;;;;;16.00;7.50;;;27.50;74.60;;;;;;5083924;28;20347;-49
2021/04/25 10:44:59;;;;;;;21.35;7.88;;;27.50;74.00;;;;;;5083897;28;20020;-48
2021/04/25 10:47:30;;;;;;;17.17;7.13;;;27.50;74.00;;;;;;5082905;28;20024;-48
2021/04/25 10:50:01;;;;;;;20.25;8.38;;;27.60;73.90;;;;;;5083754;28;20209;-49
2021/04/25 10:52:31;;;;;;;29.27;14.55;;;27.50;74.00;;;;;;5083745;28;20238;-48
2021/04/25 10:55:25;;;;;;;26.85;14.38;;;27.50;74.20;;;;;;5083838;28;20305;-49
2021/04/25 10:58:00;;;;;;;25.67;10.18;;;27.50;74.30;;;;;;5083633;28;20211;-52
2021/04/25 11:00:42;;;;;;;21.00;9.95;;;27.60;74.30;;;;;;5084123;28;20013;-49
2021/04/25 11:03:11;;;;;;;25.92;9.70;;;27.50;74.30;;;;;;5065578;28;20020;-47
2021/04/25 11:05:41;;;;;;;24.45;9.80;;;27.50;74.20;;;;;;5083877;28;20052;-48
2021/04/25 11:08:14;;;;;;;26.17;10.35;;;27.60;74.50;;;;;;5083340;28;20087;-49
2021/04/25 11:10:49;;;;;;;27.55;9.45;;;27.50;74.40;;;;;;5083745;28;20040;-53
2021/04/25 11:13:34;;;;;;;30.83;9.90;;;27.60;74.50;;;;;;5083669;28;20240;-61
2021/04/25 11:16:14;;;;;;;27.00;9.55;;;27.60;74.80;;;;;;5083876;28;20024;-50
2021/04/25 11:18:43;;;;;;;29.17;9.90;;;27.60;74.70;;;;;;5083178;28;20048;-52
2021/04/25 11:24:06;;;;;;;30.83;9.77;;;27.90;73.60;;;;;;5083284;28;20049;-49
2021/04/25 11:26:39;;;;;;;31.27;8.10;;;27.90;73.80;;;;;;5083278;28;20016;-54
2021/04/25 11:29:19;;;;;;;25.08;9.02;;;27.90;73.80;;;;;;5083126;28;20032;-49
2021/04/25 11:31:46;;;;;;;24.80;8.25;;;27.90;73.80;;;;;;5083086;28;20021;-49
2021/04/25 11:34:32;;;;;;;24.23;8.75;;;27.90;73.90;;;;;;5083034;28;20024;-50
2021/04/25 11:37:05;;;;;;;21.52;8.57;;;27.90;74.20;;;;;;5082962;28;20051;-50
2021/04/25 11:39:53;;;;;;;23.27;8.73;;;27.90;74.60;;;;;;5083045;28;20268;-48
2021/04/25 11:42:37;;;;;;;20.45;8.48;;;28.00;74.30;;;;;;5082915;28;20024;-50
2021/04/25 11:45:19;;;;;;;21.00;8.05;;;28.10;73.80;;;;;;5083434;28;20029;-49
2021/04/25 11:47:53;;;;;;;21.25;8.80;;;28.20;73.50;;;;;;5066732;28;20024;-48
2021/04/25 11:50:21;;;;;;;24.83;8.57;;;28.20;73.40;;;;;;5065362;28;20024;-49
2021/04/25 11:52:48;;;;;;;17.85;8.77;;;28.30;73.10;;;;;;5082878;28;20016;-53
2021/04/25 11:55:17;;;;;;;24.33;9.57;;;28.30;73.20;;;;;;5083356;28;20028;-48
2021/04/25 11:57:46;;;;;;;25.77;8.93;;;28.30;73.30;;;;;;5083149;28;20021;-50
2021/04/25 12:00:15;;;;;;;29.98;10.52;;;28.30;73.80;;;;;;5085400;28;20305;-48
2021/04/25 12:02:45;;;;;;;28.75;9.38;;;28.30;73.30;;;;;;5068951;28;20290;-47
2021/04/25 12:05:15;;;;;;;25.77;9.60;;;28.30;73.20;;;;;;5068833;28;20025;-54
2021/04/25 12:07:51;;;;;;;20.42;8.57;;;28.30;73.00;;;;;;5086603;28;20344;-50
2021/04/25 12:10:22;;;;;;;27.80;9.40;;;28.40;72.80;;;;;;5086690;28;20127;-53
2021/04/25 12:13:09;;;;;;;21.15;8.40;;;28.50;72.80;;;;;;5086160;28;20028;-50
2021/04/25 12:15:56;;;;;;;24.42;9.07;;;28.60;72.40;;;;;;5086698;28;20091;-49
2021/04/25 12:18:37;;;;;;;24.50;10.18;;;28.60;72.30;;;;;;5086509;28;20056;-50
2021/04/25 12:21:08;;;;;;;21.55;8.00;;;28.70;72.20;;;;;;5086709;28;20032;-48
2021/04/25 12:23:36;;;;;;;21.77;8.07;;;28.80;72.20;;;;;;5086263;28;20017;-48
2021/04/25 12:26:14;;;;;;;21.23;7.75;;;28.80;72.00;;;;;;5086710;28;20376;-49
2021/04/25 12:28:43;;;;;;;24.95;7.38;;;28.90;72.00;;;;;;5086286;28;20134;-51
2021/04/25 12:31:17;;;;;;;26.40;8.07;;;28.90;71.70;;;;;;5086005;28;20016;-56
2021/04/25 12:33:47;;;;;;;20.65;7.38;;;29.00;71.50;;;;;;5085801;28;20016;-46
2021/04/25 12:36:16;;;;;;;16.15;7.22;;;29.10;71.50;;;;;;5086134;28;20016;-49
2021/04/25 12:38:54;;;;;;;22.67;7.28;;;29.10;71.10;;;;;;5085928;28;20017;-48
2021/04/25 12:41:23;;;;;;;30.58;7.90;;;29.10;71.20;;;;;;5085822;28;20033;-51
2021/04/25 12:43:50;;;;;;;19.52;7.18;;;29.10;71.00;;;;;;5085904;28;20021;-48
2021/04/25 12:46:20;;;;;;;18.02;6.95;;;29.20;71.10;;;;;;5085801;28;20021;-56
2021/04/25 12:48:58;;;;;;;22.70;7.90;;;29.20;71.40;;;;;;5085688;28;20260;-49